Time;durP1;ratioP1;P1;durP2;ratioP2;P2;SDS_P1;SDS_P2;PMS_P1;PMS_P2;Temp;Humidity;BMP_temperature;BMP_pressure;BME280_temperature;BME280_humidity;BME280_pressure;Samples;Min_cycle;Max_cycle;Signal;HPM_P1;HPM_P2
2022/06/13 00:04:00;;;;;;;9.70;5.67;;;;;;;18.71;78.34;100647.07;5242376;56;1139024;-74
2022/06/13 00:09:08;;;;;;;11.35;6.33;;;;;;;18.81;78.81;100642.36;5226848;56;1139112;-74
2022/06/13 00:14:13;;;;;;;8.65;5.67;;;;;;;18.88;78.71;100634.00;5218418;56;1141091;-78
2022/06/13 00:19:19;;;;;;;10.63;6.05;;;;;;;18.91;78.50;100628.80;5215978;56;1139029;-74
2022/06/13 00:24:25;;;;;;;11.88;7.90;;;;;;;18.83;78.14;100630.14;5118137;57;1141096;-76
2022/06/13 00:29:30;;;;;;;9.38;6.17;;;;;;;18.77;78.68;100618.78;5215856;56;1141195;-73
2022/06/13 00:34:36;;;;;;;12.78;6.10;;;;;;;18.78;78.45;100618.61;5216199;55;1138897;-74
2022/06/13 00:39:42;;;;;;;10.70;6.85;;;;;;;18.58;77.28;100615.91;5225734;56;1141067;-75
2022/06/13 00:45:14;;;;;;;8.68;6.40;;;;;;;18.36;77.80;100605.85;5117992;57;1141301;-78
2022/06/13 00:50:30;;;;;;;9.88;6.55;;;;;;;18.39;78.67;100590.30;5215189;55;1138930;-77
2022/06/13 00:55:42;;;;;;;11.95;5.40;;;;;;;18.43;78.94;100601.02;5213214;56;1138910;-73
2022/06/13 01:00:53;;;;;;;7.62;4.97;;;;;;;18.39;78.46;100596.16;5220915;56;1141570;-76
2022/06/13 01:06:02;;;;;;;11.85;5.45;;;;;;;18.28;78.43;100585.28;5228364;56;1138966;-74
2022/06/13 01:11:17;;;;;;;8.23;6.15;;;;;;;18.28;78.43;100585.28;5242446;55;1141035;-75
2022/06/13 01:16:44;;;;;;;7.70;5.35;;;;;;;18.11;78.22;100576.41;5330642;55;1138496;-75
2022/06/13 01:22:04;;;;;;;6.83;5.62;;;;;;;18.04;78.64;100575.88;5332419;55;1138972;-74
2022/06/13 01:27:20;;;;;;;12.13;6.00;;;;;;;18.02;79.41;100572.56;5278923;55;1137094;-74
2022/06/13 01:32:42;;;;;;;12.05;5.58;;;;;;;18.03;79.81;100560.33;5332337;55;1138934;-74
2022/06/13 01:38:01;;;;;;;12.83;6.30;;;;;;;18.02;79.77;100559.18;5332953;55;1138636;-74
2022/06/13 01:43:45;;;;;;;7.03;5.47;;;;;;;18.07;80.63;100554.98;5286149;55;1139089;-76
2022/06/13 01:49:23;;;;;;;8.33;5.47;;;;;;;18.01;79.79;100540.95;5319446;55;1138899;-77
2022/06/13 01:54:45;;;;;;;12.60;6.37;;;;;;;17.93;79.80;100534.23;5249489;55;1138972;-76
2022/06/13 02:00:17;;;;;;;8.57;6.07;;;;;;;17.66;80.05;100530.02;5242775;56;1141070;-75
2022/06/13 02:05:36;;;;;;;7.92;5.55;;;;;;;17.66;80.97;100528.69;5242919;56;1138983;-77
2022/06/13 02:10:49;;;;;;;11.30;6.27;;;;;;;17.61;80.50;100526.13;5270158;55;1139147;-73
2022/06/13 02:15:58;;;;;;;10.70;6.37;;;;;;;17.34;80.75;100528.06;5317894;55;1141295;-75
2022/06/13 02:21:11;;;;;;;10.23;6.33;;;;;;;17.41;81.84;100530.45;5317964;55;1141065;-76
2022/06/13 02:26:21;;;;;;;11.15;5.33;;;;;;;17.53;82.31;100526.45;5187042;56;1141052;-77
2022/06/13 02:31:31;;;;;;;10.43;5.78;;;;;;;17.54;81.54;100525.46;5138936;57;1141069;-74
2022/06/13 02:37:03;;;;;;;10.15;6.00;;;;;;;17.56;82.17;100534.16;5142708;57;1141246;-74
2022/06/13 02:42:14;;;;;;;16.00;8.17;;;;;;;17.55;82.01;100528.97;5144433;56;1141112;-76
2022/06/13 02:47:27;;;;;;;17.10;8.33;;;;;;;17.56;82.42;100526.14;5137164;56;1139231;-75
2022/06/13 02:52:53;;;;;;;14.37;8.93;;;;;;;17.55;82.97;100534.32;5227451;56;1138974;-75
2022/06/13 02:58:20;;;;;;;16.60;7.67;;;;;;;17.55;82.95;100532.48;5141111;56;1139062;-75
2022/06/13 03:03:46;;;;;;;13.43;8.30;;;;;;;17.57;83.43;100525.11;5157528;57;1139016;-78
2022/06/13 03:09:10;;;;;;;9.50;6.90;;;;;;;17.59;83.47;100527.12;5201173;56;1136942;-77
2022/06/13 03:14:47;;;;;;;12.37;7.17;;;;;;;17.58;83.60;100523.27;5099518;56;1138833;-76
2022/06/13 03:20:12;;;;;;;16.33;9.03;;;;;;;17.30;83.23;100525.88;5162760;57;1141095;-74
2022/06/13 03:25:58;;;;;;;10.93;7.03;;;;;;;17.10;84.33;100510.12;5162703;57;1141277;-76
2022/06/13 03:31:17;;;;;;;14.20;8.00;;;;;;;17.20;85.77;100491.27;5187037;56;1141092;-76
2022/06/13 03:36:37;;;;;;;16.97;7.17;;;;;;;17.29;85.90;100489.45;5242727;55;1141025;-74
2022/06/13 03:42:06;;;;;;;17.77;7.57;;;;;;;17.44;86.43;100494.50;5144884;56;1141067;-76
2022/06/13 03:47:25;;;;;;;12.07;7.17;;;;;;;17.42;85.95;100495.99;5172198;57;1141029;-75
2022/06/13 03:52:34;;;;;;;14.57;6.90;;;;;;;17.28;85.75;100516.67;5085299;57;1139016;-77
2022/06/13 03:57:50;;;;;;;11.10;7.90;;;;;;;17.08;85.85;100525.48;4961883;59;1139125;-75
2022/06/13 04:02:57;;;;;;;14.53;7.87;;;;;;;17.05;86.79;100532.47;4921242;59;1139003;-74
2022/06/13 04:08:03;;;;;;;20.90;8.20;;;;;;;16.92;87.14;100540.59;5002611;58;1139278;-75
2022/06/13 04:13:50;;;;;;;15.50;8.20;;;;;;;16.79;88.26;100539.20;5021787;58;1139028;-74
2022/06/13 04:19:36;;;;;;;10.57;7.10;;;;;;;16.85;88.83;100536.38;5190992;56;1138993;-74
2022/06/13 04:24:57;;;;;;;14.90;7.97;;;;;;;16.84;89.46;100536.03;5249932;56;1141176;-74
2022/06/13 04:30:14;;;;;;;13.13;8.37;;;;;;;16.81;90.00;100543.86;5203286;56;1141198;-78
2022/06/13 04:35:22;;;;;;;14.73;8.33;;;;;;;16.77;90.76;100553.20;5223458;56;1141223;-73
2022/06/13 04:40:30;;;;;;;15.93;8.27;;;;;;;16.72;90.81;100547.98;5151101;56;1141048;-76
2022/06/13 04:45:58;;;;;;;12.57;8.23;;;;;;;16.77;91.22;100536.34;5190304;55;1141196;-76
2022/06/13 04:51:08;;;;;;;10.23;7.40;;;;;;;16.98;92.02;100535.44;5174916;55;1141131;-75
2022/06/13 04:56:14;;;;;;;15.37;8.23;;;;;;;17.03;92.21;100539.81;5189570;56;1141044;-74
2022/06/13 05:01:39;;;;;;;12.83;7.97;;;;;;;17.01;92.25;100526.27;5139103;56;1141157;-73
2022/06/13 05:06:52;;;;;;;15.10;8.30;;;;;;;17.04;92.44;100528.13;5188486;56;1141022;-72
2022/06/13 05:12:19;;;;;;;;;;;;;;;17.02;93.08;100523.94;5146123;56;1141335;-77
2022/06/13 05:17:46;;;;;;;19.50;9.23;;;;;;;17.01;93.91;100528.94;5144910;56;976281;-76
2022/06/13 05:23:23;;;;;;;16.00;8.80;;;;;;;16.95;94.30;100525.59;5142261;57;1136924;-75
2022/06/13 05:28:34;;;;;;;18.07;9.97;;;;;;;17.00;94.75;100507.22;5142237;57;1138917;-73
2022/06/13 05:33:44;;;;;;;13.33;8.00;;;;;;;17.19;95.20;100502.46;5142816;56;1139425;-75
2022/06/13 05:38:56;;;;;;;14.37;9.77;;;;;;;17.39;95.27;100509.72;5142218;55;1139220;-77
2022/06/13 05:44:01;;;;;;;14.07;9.83;;;;;;;17.46;95.25;100502.70;5176105;55;1139100;-72
2022/06/13 05:49:08;;;;;;;17.80;10.33;;;;;;;17.64;96.27;100506.61;5177358;55;1139430;-77
2022/06/13 05:54:15;;;;;;;17.67;9.73;;;;;;;17.84;97.42;100509.32;5154474;56;1141256;-72
2022/06/13 05:59:20;;;;;;;19.43;9.60;;;;;;;17.96;98.64;100507.15;5186793;56;1138926;-75
2022/06/13 06:04:26;;;;;;;16.70;9.80;;;;;;;18.01;98.41;100514.69;5229151;55;1136937;-75
2022/06/13 06:09:33;;;;;;;19.63;9.77;;;;;;;17.97;98.87;100502.63;5169307;55;1137071;-75
2022/06/13 06:14:38;;;;;;;14.20;9.73;;;;;;;17.90;97.87;100500.61;5141939;56;1140438;-74
2022/06/13 06:19:44;;;;;;;13.93;9.00;;;;;;;17.92;97.53;100526.70;5141816;57;1141077;-78
2022/06/13 06:24:50;;;;;;;18.00;10.88;;;;;;;17.81;97.36;100534.22;5139221;57;1141072;-78
2022/06/13 06:29:56;;;;;;;15.48;9.40;;;;;;;17.63;96.61;100534.83;5101039;56;1143123;-73
2022/06/13 06:35:02;;;;;;;14.80;10.10;;;;;;;17.46;97.06;100528.09;5228680;56;1141157;-76
2022/06/13 06:40:10;;;;;;;19.10;11.50;;;;;;;17.45;97.55;100524.25;5228687;56;1143354;-77
2022/06/13 06:45:17;;;;;;;17.27;10.87;;;;;;;17.47;98.04;100523.09;5192950;56;1143116;-74
2022/06/13 06:50:27;;;;;;;26.10;10.90;;;;;;;17.63;98.44;100514.27;5149596;56;1143002;-77
2022/06/13 07:01:18;;;;;;;15.40;8.93;;;;;;;17.73;97.35;100525.67;5120822;56;1143281;-75
2022/06/13 07:06:23;;;;;;;13.73;7.77;;;;;;;17.63;96.58;100554.88;5115006;56;1140946;-77
2022/06/13 07:16:51;;;;;;;;;;;;;;;17.35;99.37;100584.55;5157036;56;1141266;-76
2022/06/13 07:21:58;;;;;;;15.73;10.10;;;;;;;17.09;100.00;100582.44;5162984;56;976312;-77
2022/06/13 07:27:04;;;;;;;13.87;9.87;;;;;;;16.92;100.00;100547.27;5120332;56;1143178;-76
2022/06/13 07:32:22;;;;;;;15.47;9.87;;;;;;;16.90;100.00;100514.53;5137077;57;1143081;-75
2022/06/13 07:42:56;;;;;;;19.00;8.97;;;;;;;16.95;100.00;100498.88;5157806;56;1145280;-75
2022/06/13 07:48:03;;;;;;;12.48;9.68;;;;;;;16.99;100.00;100506.88;5158764;56;1143335;-76
2022/06/13 07:53:10;;;;;;;18.37;10.77;;;;;;;16.98;100.00;100531.92;5162254;57;1143168;-75
2022/06/13 07:58:28;;;;;;;21.87;11.63;;;;;;;17.02;100.00;100547.98;5147541;56;1145126;-75
2022/06/13 08:03:36;;;;;;;12.20;8.83;;;;;;;17.02;100.00;100522.59;5140208;57;1143155;-74
2022/06/13 08:08:45;;;;;;;20.20;10.40;;;;;;;17.15;100.00;100539.02;5146207;57;1141340;-74
2022/06/13 08:13:49;;;;;;;12.27;6.53;;;;;;;17.16;100.00;100521.48;5159620;56;1143223;-75
2022/06/13 08:18:55;;;;;;;15.77;8.43;;;;;;;17.24;100.00;100516.69;5165795;56;1141045;-73
2022/06/13 08:24:01;;;;;;;13.20;6.03;;;;;;;17.26;100.00;100519.20;5109229;57;1141295;-76
2022/06/13 08:29:07;;;;;;;14.97;8.47;;;;;;;17.36;100.00;100513.20;5137673;57;1141260;-75
2022/06/13 08:34:13;;;;;;;15.07;7.23;;;;;;;17.54;100.00;100519.27;5189594;56;1141042;-74
2022/06/13 08:39:19;;;;;;;16.73;8.00;;;;;;;17.83;100.00;100521.02;5191830;56;1141107;-73
2022/06/13 08:44:32;;;;;;;8.98;5.47;;;;;;;18.21;100.00;100518.67;5163183;56;1141077;-72
2022/06/13 08:49:59;;;;;;;11.47;5.27;;;;;;;18.46;100.00;100528.87;5111732;57;1138991;-73
2022/06/13 08:55:18;;;;;;;6.20;3.65;;;;;;;18.57;100.00;100527.17;4998375;58;1138879;-74
2022/06/13 09:00:27;;;;;;;10.53;3.50;;;;;;;18.92;100.00;100531.31;5062800;57;1141122;-75
2022/06/13 09:05:37;;;;;;;10.93;3.62;;;;;;;19.22;100.00;100539.07;5122860;56;1143172;-76
2022/06/13 09:11:23;;;;;;;11.57;3.83;;;;;;;19.23;96.20;100565.72;5199249;56;1143573;-74
2022/06/13 09:16:33;;;;;;;11.20;2.62;;;;;;;18.98;96.20;100567.62;5159976;56;1141312;-75
2022/06/13 09:21:46;;;;;;;8.00;3.05;;;;;;;18.98;95.38;100563.61;5171271;56;1141114;-72
2022/06/13 09:26:59;;;;;;;8.88;2.83;;;;;;;19.08;94.43;100550.02;5196940;56;1138938;-73
2022/06/13 09:32:25;;;;;;;7.75;2.40;;;;;;;19.32;95.35;100541.86;5214601;56;1138927;-74
2022/06/13 09:37:53;;;;;;;5.05;1.98;;;;;;;19.69;93.49;100539.02;5200017;56;1139203;-77
2022/06/13 09:43:18;;;;;;;2.75;1.60;;;;;;;19.88;88.95;100535.01;5207068;56;1138937;-78
2022/06/13 09:48:46;;;;;;;8.86;1.92;;;;;;;20.18;84.69;100526.05;5190260;56;1139004;-77
2022/06/13 09:54:01;;;;;;;4.08;1.85;;;;;;;20.67;89.53;100514.36;5217063;55;1137055;-74
2022/06/13 09:59:29;;;;;;;6.67;1.80;;;;;;;20.74;80.55;100518.50;5192980;56;1136789;-75
2022/06/13 10:04:51;;;;;;;9.58;1.54;;;;;;;20.76;79.55;100522.34;5172094;56;1136899;-78
2022/06/13 10:10:06;;;;;;;3.15;1.30;;;;;;;20.63;73.38;100537.74;5191092;56;1136924;-74
2022/06/13 10:15:48;;;;;;;5.25;1.05;;;;;;;20.47;72.44;100532.02;5141298;56;1136942;-77
2022/06/13 10:21:14;;;;;;;3.22;1.32;;;;;;;20.43;72.17;100522.68;5126829;57;1139030;-74
2022/06/13 10:26:56;;;;;;;3.98;1.62;;;;;;;20.69;69.31;100512.33;5081930;57;1138436;-76
2022/06/13 10:32:20;;;;;;;2.65;1.00;;;;;;;20.80;68.02;100508.33;5102996;58;1138968;-74
2022/06/13 10:37:44;;;;;;;3.15;1.40;;;;;;;20.93;68.25;100498.30;5166737;57;1138929;-75
2022/06/13 10:42:54;;;;;;;5.92;1.55;;;;;;;20.96;66.57;100503.27;5112304;56;1139007;-77
2022/06/13 10:48:17;;;;;;;5.25;1.50;;;;;;;21.36;64.89;100504.66;5107979;57;1139244;-75
2022/06/13 10:53:54;;;;;;;6.58;1.70;;;;;;;21.52;57.97;100499.55;5126838;57;1139127;-75
2022/06/13 10:59:00;;;;;;;7.35;1.67;;;;;;;21.44;56.48;100492.42;5108411;57;1136977;-74
2022/06/13 11:04:30;;;;;;;12.58;2.37;;;;;;;21.19;60.82;100503.17;5136713;57;1136804;-78
2022/06/13 11:09:59;;;;;;;4.87;1.70;;;;;;;21.34;62.14;100515.60;5192887;57;1138504;-79
2022/06/13 11:31:55;;;;;;;5.83;2.05;;;;;;;21.01;57.47;100519.18;5141371;56;1139013;-74
2022/06/13 11:37:14;;;;;;;5.35;1.87;;;;;;;21.14;59.90;100516.34;5168723;56;1139082;-75
2022/06/13 11:42:30;;;;;;;7.62;1.77;;;;;;;21.47;57.86;100522.98;5156490;56;1138954;-78
2022/06/13 11:47:49;;;;;;;2.30;1.12;;;;;;;21.66;55.32;100524.23;5206641;56;1138991;-75
2022/06/13 11:58:27;;;;;;;6.72;1.47;;;;;;;22.04;56.48;100539.14;5110572;57;1139190;-75
2022/06/13 12:03:34;;;;;;;6.42;1.92;;;;;;;21.92;51.57;100539.31;5100048;57;1138996;-76
2022/06/13 12:08:43;;;;;;;13.00;1.52;;;;;;;21.69;49.34;100542.16;5140828;57;1138958;-77
2022/06/13 12:13:52;;;;;;;6.60;2.55;;;;;;;21.59;49.06;100552.92;5179479;56;1141024;-76
2022/06/13 12:19:19;;;;;;;5.87;1.47;;;;;;;21.50;51.06;100556.77;5190754;56;1139038;-76
2022/06/13 12:24:46;;;;;;;6.33;1.42;;;;;;;21.45;51.78;100571.28;5196202;56;1136825;-74
2022/06/13 12:30:45;;;;;;;5.35;1.60;;;;;;;21.14;48.75;100586.27;5106806;57;1136836;-74
2022/06/13 12:36:18;;;;;;;13.62;1.90;;;;;;;20.97;51.33;100593.67;5033558;58;1134862;-76
2022/06/13 12:41:34;;;;;;;6.85;1.72;;;;;;;21.02;52.11;100592.11;5077391;57;1141051;-76
2022/06/13 12:47:18;;;;;;;4.55;1.45;;;;;;;21.26;48.95;100583.45;5279830;55;1139017;-76
2022/06/13 12:52:33;;;;;;;5.17;1.80;;;;;;;21.54;46.44;100587.67;5288476;56;1138948;-76
2022/06/13 12:58:01;;;;;;;10.46;1.98;;;;;;;21.55;48.66;100592.00;5293900;55;1139164;-72
2022/06/13 13:03:20;;;;;;;2.60;1.32;;;;;;;21.87;45.44;100590.20;5262378;55;1141107;-72
2022/06/13 13:08:57;;;;;;;5.72;1.37;;;;;;;21.74;42.20;100582.82;5232263;55;1138908;-74
2022/06/13 13:14:46;;;;;;;2.70;1.06;;;;;;;21.75;41.17;100578.27;5219294;56;1139241;-73
2022/06/13 13:20:13;;;;;;;6.37;1.53;;;;;;;21.74;41.26;100603.02;5235571;56;1136882;-75
2022/06/13 13:25:36;;;;;;;4.55;1.90;;;;;;;21.75;40.40;100601.16;5226584;56;1136903;-73
2022/06/13 13:30:58;;;;;;;4.03;1.37;;;;;;;21.48;40.72;100608.08;5181631;56;1136920;-74
2022/06/13 13:36:29;;;;;;;3.45;1.07;;;;;;;20.93;42.78;100627.35;5135440;57;1134874;-78
2022/06/13 13:41:48;;;;;;;5.43;1.30;;;;;;;20.99;45.09;100615.33;5156234;55;1139238;-76
2022/06/13 13:47:12;;;;;;;4.45;1.20;;;;;;;21.35;43.98;100614.64;5223449;56;1138923;-77
2022/06/13 13:52:22;;;;;;;6.35;1.47;;;;;;;21.22;43.53;100616.64;5098250;57;1138976;-78
2022/06/13 13:57:33;;;;;;;3.70;1.20;;;;;;;21.18;43.34;100608.58;5013639;58;1138996;-76
2022/06/13 14:02:53;;;;;;;4.60;1.65;;;;;;;21.10;44.43;100609.16;5029250;58;1139128;-76
2022/06/13 14:08:21;;;;;;;15.30;1.30;;;;;;;21.16;44.29;100609.27;4975172;59;1139129;-76
2022/06/13 14:13:39;;;;;;;5.80;2.60;;;;;;;21.42;45.51;100600.74;4992825;58;1141313;-75
2022/06/13 14:19:15;;;;;;;8.40;1.45;;;;;;;21.27;44.18;100606.14;5069185;57;1139016;-76
2022/06/13 14:24:24;;;;;;;8.17;1.93;;;;;;;21.25;44.79;100605.48;5159754;57;1139215;-74
2022/06/13 14:29:42;;;;;;;6.97;1.52;;;;;;;21.43;45.44;100600.23;5211787;56;1138981;-77
2022/06/13 14:35:15;;;;;;;7.10;1.57;;;;;;;21.57;43.96;100587.27;5159120;57;1136941;-76
2022/06/13 14:40:43;;;;;;;5.33;1.32;;;;;;;21.43;44.05;100599.72;5133326;57;1136885;-73
2022/06/13 14:45:53;;;;;;;5.87;1.80;;;;;;;21.27;44.99;100591.85;5143545;57;1136773;-77
2022/06/13 14:51:16;;;;;;;3.87;1.60;;;;;;;21.43;41.64;100587.62;5156127;56;1136906;-77
2022/06/13 14:56:32;;;;;;;8.12;1.88;;;;;;;21.33;41.33;100597.33;5140835;57;1138860;-78
2022/06/13 15:01:50;;;;;;;5.13;1.60;;;;;;;21.22;42.20;100595.63;5098066;55;1138932;-76
2022/06/13 15:07:09;;;;;;;8.75;2.15;;;;;;;21.22;43.46;100605.05;5189151;55;1139054;-78
2022/06/13 15:12:31;;;;;;;1.65;1.15;;;;;;;21.31;43.10;100611.48;5234429;56;1139291;-75
2022/06/13 15:17:39;;;;;;;5.22;1.85;;;;;;;21.22;41.95;100611.77;5262167;56;1138917;-80
2022/06/13 15:22:49;;;;;;;3.90;1.65;;;;;;;21.22;41.95;100611.77;5095465;56;1139052;-75
2022/06/13 15:28:00;;;;;;;5.30;2.30;;;;;;;20.97;41.86;100618.71;5127108;57;1138913;-75
2022/06/13 15:33:16;;;;;;;5.60;2.10;;;;;;;20.75;42.73;100622.31;5080023;57;1139030;-74
2022/06/13 15:38:29;;;;;;;7.12;2.58;;;;;;;20.82;45.63;100624.58;5015518;57;1138543;-75
2022/06/13 15:43:48;;;;;;;;;;;;;;;21.18;44.72;100637.33;5075783;57;1139024;-76
2022/06/13 15:48:55;;;;;;;4.37;2.50;;;;;;;21.38;45.96;100623.18;5129030;57;976516;-73
2022/06/13 15:54:21;;;;;;;20.55;3.45;;;;;;;21.58;45.68;100630.66;5111074;57;1137161;-77
2022/06/13 15:59:26;;;;;;;8.83;3.65;;;;;;;21.55;45.68;100632.37;5142382;57;1140981;-75
2022/06/13 16:04:38;;;;;;;5.60;2.12;;;;;;;21.48;46.01;100631.47;5120886;57;1139218;-76
2022/06/13 16:09:45;;;;;;;5.63;1.73;;;;;;;21.20;45.68;100643.40;5151555;56;1139127;-77
2022/06/13 16:14:54;;;;;;;5.47;1.77;;;;;;;20.81;45.44;100643.06;5161656;56;1139327;-78
2022/06/13 16:20:20;;;;;;;5.17;1.60;;;;;;;20.71;47.19;100647.37;5191329;55;1138976;-74
2022/06/13 16:25:27;;;;;;;4.53;1.90;;;;;;;20.50;47.06;100647.20;5124137;57;1136942;-73
2022/06/13 16:30:37;;;;;;;11.15;2.98;;;;;;;20.41;48.00;100655.01;5124795;57;1136941;-76
2022/06/13 16:35:48;;;;;;;8.68;2.77;;;;;;;20.38;48.78;100663.42;5103772;57;1139203;-75
2022/06/13 16:40:56;;;;;;;8.48;1.50;;;;;;;20.62;49.75;100658.38;5002289;58;1136886;-73
2022/06/13 16:46:08;;;;;;;6.65;1.90;;;;;;;20.55;47.90;100665.48;5106174;57;1137210;-73
2022/06/13 16:51:19;;;;;;;5.62;1.95;;;;;;;20.60;47.12;100669.31;5121742;57;1136837;-75
2022/06/13 16:56:27;;;;;;;5.92;2.00;;;;;;;20.40;47.96;100679.36;5123072;57;1137124;-77
2022/06/13 17:01:43;;;;;;;6.83;2.17;;;;;;;20.19;49.37;100705.47;5184304;56;1136882;-74
2022/06/13 17:06:50;;;;;;;11.70;1.60;;;;;;;20.12;50.59;100704.02;5218027;56;1134805;-75
2022/06/13 17:12:00;;;;;;;12.10;3.00;;;;;;;20.09;50.68;100715.61;5199373;56;1141043;-74
2022/06/13 17:17:13;;;;;;;6.10;1.67;;;;;;;19.85;51.29;100716.07;5102675;56;1141336;-76
2022/06/13 17:22:21;;;;;;;5.25;1.35;;;;;;;19.75;51.89;100715.42;5202430;56;1138879;-77
2022/06/13 17:32:55;;;;;;;8.03;2.40;;;;;;;19.22;51.96;100737.50;5236605;56;1139050;-73
2022/06/13 17:38:02;;;;;;;13.58;3.05;;;;;;;19.13;52.56;100736.66;5227443;56;1139048;-76
2022/06/13 17:43:09;;;;;;;6.90;2.37;;;;;;;19.12;53.46;100747.55;5241140;56;1141147;-76
2022/06/13 17:48:25;;;;;;;11.93;2.58;;;;;;;19.03;53.97;100759.29;5068257;57;1139510;-75
2022/06/13 17:53:31;;;;;;;6.75;2.95;;;;;;;18.92;57.01;100762.65;5209929;56;1141152;-76
2022/06/13 17:58:37;;;;;;;36.95;29.27;;;;;;;18.49;59.58;100774.92;5213933;55;1138919;-74
2022/06/13 18:03:45;;;;;;;50.73;34.80;;;;;;;18.31;60.00;100772.89;5219778;56;1143582;-76
2022/06/13 18:08:58;;;;;;;60.05;36.10;;;;;;;18.17;60.36;100769.84;5228597;55;1143362;-73
2022/06/13 18:14:02;;;;;;;84.47;47.48;;;;;;;18.11;61.05;100768.30;5228618;56;1143099;-76
2022/06/13 18:19:15;;;;;;;24.35;13.53;;;;;;;18.13;61.69;100763.13;5226410;55;1143146;-74
2022/06/13 18:24:31;;;;;;;32.25;20.08;;;;;;;18.13;62.09;100768.98;5216217;55;1143123;-76
2022/06/13 18:29:41;;;;;;;12.85;5.53;;;;;;;18.08;61.96;100772.63;5182525;56;1143074;-75
2022/06/13 18:34:51;;;;;;;8.38;1.87;;;;;;;18.07;62.69;100771.78;5167852;56;1141128;-75
2022/06/13 18:39:57;;;;;;;13.28;4.92;;;;;;;18.02;63.32;100779.48;5159808;56;1138916;-75
2022/06/13 18:45:05;;;;;;;12.18;3.00;;;;;;;17.90;63.08;100788.27;5186034;55;1141246;-74
2022/06/13 18:50:13;;;;;;;6.42;2.27;;;;;;;17.86;63.28;100788.27;5184096;56;1141019;-75
2022/06/13 18:55:21;;;;;;;9.70;2.55;;;;;;;17.85;63.04;100798.63;5190713;56;1138929;-75
2022/06/13 19:00:28;;;;;;;7.55;4.85;;;;;;;17.75;63.13;100803.23;5195117;56;1138981;-74
2022/06/13 19:05:39;;;;;;;;;;;;;;;17.66;63.30;100805.53;5181292;56;1136958;-77
2022/06/13 19:10:56;;;;;;;8.50;2.70;;;;;;;17.53;63.45;100800.58;5145344;57;974335;-73
2022/06/13 19:16:00;;;;;;;6.10;2.20;;;;;;;17.40;63.91;100809.52;5139273;57;1134857;-76
2022/06/13 19:21:07;;;;;;;7.77;3.13;;;;;;;17.28;64.36;100811.23;5141449;56;1136913;-74
2022/06/13 19:26:17;;;;;;;9.90;2.83;;;;;;;17.14;64.71;100821.48;5141578;57;1136888;-74
2022/06/13 19:31:28;;;;;;;7.63;2.67;;;;;;;17.01;65.14;100826.38;5137330;57;1137398;-75
2022/06/13 19:36:34;;;;;;;8.88;2.90;;;;;;;16.86;65.50;100831.91;5196287;56;1136830;-76
2022/06/13 19:41:42;;;;;;;8.30;2.60;;;;;;;16.78;65.92;100835.84;5133446;57;1136942;-75
2022/06/13 19:46:48;;;;;;;6.57;2.43;;;;;;;16.70;66.19;100839.75;5174199;56;1137080;-76
2022/06/13 19:51:55;;;;;;;7.02;2.98;;;;;;;16.58;66.26;100847.11;5158284;56;1136923;-77
2022/06/13 19:57:02;;;;;;;4.87;2.20;;;;;;;16.45;66.32;100854.14;5099720;57;1137110;-74
2022/06/13 20:02:08;;;;;;;4.80;2.00;;;;;;;16.30;66.25;100868.13;5147164;56;1137150;-75
2022/06/13 20:12:41;;;;;;;5.30;2.20;;;;;;;16.09;66.17;100863.84;5038532;57;1138988;-76
2022/06/13 20:17:48;;;;;;;8.03;2.33;;;;;;;16.02;65.91;100868.59;5155741;56;1138948;-76
2022/06/13 20:22:54;;;;;;;3.93;2.03;;;;;;;15.87;65.85;100877.55;5231086;55;1139029;-73
2022/06/13 20:28:01;;;;;;;6.97;1.97;;;;;;;15.72;66.06;100874.98;5192755;56;1138955;-74
2022/06/13 20:33:13;;;;;;;4.17;1.87;;;;;;;15.62;66.15;100878.98;5195511;56;1138979;-72
2022/06/13 20:38:23;;;;;;;3.03;1.87;;;;;;;15.60;66.25;100872.11;5226022;56;1139227;-71
2022/06/13 20:43:32;;;;;;;5.64;1.80;;;;;;;15.54;66.17;100872.66;5201934;55;1138954;-73
2022/06/13 20:48:45;;;;;;;42.80;20.83;;;;;;;15.45;66.36;100868.52;5212171;55;1139006;-74
2022/06/13 20:53:53;;;;;;;8.73;4.00;;;;;;;15.41;66.32;100871.63;5147980;56;1143032;-74
2022/06/13 20:59:00;;;;;;;4.63;1.67;;;;;;;15.36;66.49;100877.37;5164812;56;1138416;-71
2022/06/13 21:04:09;;;;;;;3.63;1.73;;;;;;;15.31;66.55;100877.44;5191028;55;1139020;-75
2022/06/13 21:14:45;;;;;;;20.57;7.23;;;;;;;15.13;67.19;100880.80;5139918;56;1138905;-74
2022/06/13 21:19:53;;;;;;;7.93;3.10;;;;;;;15.11;67.39;100879.28;5136008;57;1141030;-75
2022/06/13 21:24:58;;;;;;;7.83;2.00;;;;;;;15.05;67.72;100879.33;5142179;56;1138995;-75
2022/06/13 21:30:12;;;;;;;6.17;2.73;;;;;;;14.96;68.28;100887.32;5184624;56;1138918;-75
2022/06/13 21:35:20;;;;;;;2.70;1.27;;;;;;;14.84;68.55;100889.23;5274775;55;1138983;-75
2022/06/13 21:40:31;;;;;;;4.50;2.10;;;;;;;14.75;68.75;100888.74;5270783;55;1138980;-74
2022/06/13 21:45:35;;;;;;;22.80;9.43;;;;;;;14.66;69.25;100893.08;5178639;56;1139283;-75
2022/06/13 21:50:43;;;;;;;6.63;4.63;;;;;;;14.61;69.46;100891.30;5141192;57;1141033;-73
2022/06/13 21:55:49;;;;;;;54.57;27.37;;;;;;;14.56;69.77;100893.52;5188757;56;1138981;-74
2022/06/13 22:00:55;;;;;;;4.97;2.20;;;;;;;14.50;70.03;100893.23;5220061;56;1143443;-75
2022/06/13 22:06:02;;;;;;;10.67;2.67;;;;;;;14.42;70.42;100893.89;5219093;56;1138964;-74
2022/06/13 22:11:15;;;;;;;14.53;7.43;;;;;;;14.32;70.64;100899.64;5219842;56;1141060;-74
2022/06/13 22:16:24;;;;;;;4.13;1.30;;;;;;;14.23;71.21;100905.27;5219749;56;1138950;-74
2022/06/13 22:21:31;;;;;;;12.13;5.73;;;;;;;14.15;71.82;100906.91;5219790;56;1136858;-75
2022/06/13 22:26:41;;;;;;;6.87;3.77;;;;;;;14.02;72.25;100900.48;5206928;56;1139012;-73
2022/06/13 22:31:52;;;;;;;3.37;1.23;;;;;;;13.96;72.63;100908.97;5205231;56;1137290;-73
2022/06/13 22:36:58;;;;;;;1.43;1.30;;;;;;;13.87;73.19;100911.95;5205674;56;1136919;-74
2022/06/13 22:42:04;;;;;;;3.73;1.20;;;;;;;13.84;73.78;100911.36;5206086;56;1136813;-73
2022/06/13 22:52:37;;;;;;;1.60;1.40;;;;;;;13.82;73.70;100905.32;5249777;56;1139008;-74
2022/06/13 22:57:44;;;;;;;1.97;1.07;;;;;;;13.84;73.77;100908.21;5249846;56;1137004;-73
2022/06/13 23:02:50;;;;;;;1.57;1.47;;;;;;;13.86;73.80;100916.06;5248279;55;1136979;-74
2022/06/13 23:07:56;;;;;;;4.07;1.40;;;;;;;13.84;73.88;100912.20;5206110;57;1135080;-73
2022/06/13 23:13:02;;;;;;;2.83;1.50;;;;;;;13.87;73.82;100913.76;5210899;56;1135004;-72
2022/06/13 23:18:08;;;;;;;7.23;4.50;;;;;;;13.78;73.85;100920.68;5249675;56;1139236;-75
2022/06/13 23:23:14;;;;;;;6.15;2.12;;;;;;;13.73;74.15;100918.44;5188748;56;1139233;-74
2022/06/13 23:28:20;;;;;;;3.70;1.30;;;;;;;13.69;74.62;100920.98;5150271;57;1139122;-73
2022/06/13 23:33:26;;;;;;;3.00;1.03;;;;;;;13.59;74.92;100929.88;5147942;56;1138875;-74
2022/06/13 23:38:32;;;;;;;5.00;1.37;;;;;;;13.49;75.31;100932.91;5206016;56;1138903;-72
2022/06/13 23:43:37;;;;;;;1.37;1.03;;;;;;;13.48;75.67;100929.90;5260577;56;1138977;-73
2022/06/13 23:49:01;;;;;;;2.87;1.57;;;;;;;13.51;75.83;100933.64;5292244;56;1139006;-74
2022/06/13 23:54:24;;;;;;;3.70;1.40;;;;;;;13.47;75.78;100932.20;5208282;56;1139211;-74
